Time;durP1;ratioP1;P1;durP2;ratioP2;P2;SDS_P1;SDS_P2;PMS_P1;PMS_P2;Temp;Humidity;BMP_temperature;BMP_pressure;BME280_temperature;BME280_humidity;BME280_pressure;Samples;Min_cycle;Max_cycle;Signal;HPM_P1;HPM_P2
2023/09/15 00:00:42;;;;;;;8.40;6.87;;;;;;;12.25;100.00;101742.06;5016334;28;20772;-81
2023/09/15 00:03:12;;;;;;;7.20;5.77;;;;;;;12.28;100.00;101752.56;5006562;28;20444;-81
2023/09/15 00:05:44;;;;;;;7.37;5.40;;;;;;;12.31;100.00;101745.91;5000712;28;20437;-81
2023/09/15 00:08:13;;;;;;;7.27;5.60;;;;;;;12.26;100.00;101746.47;5017236;28;20474;-82
2023/09/15 00:10:44;;;;;;;7.03;5.10;;;;;;;12.27;100.00;101747.31;5005156;28;21088;-81
2023/09/15 00:13:15;;;;;;;7.33;6.03;;;;;;;12.19;100.00;101745.59;5001778;28;20466;-80
2023/09/15 00:15:49;;;;;;;18.70;6.47;;;;;;;12.30;100.00;101753.19;5002232;28;20454;-81
2023/09/15 00:18:19;;;;;;;6.63;5.53;;;;;;;12.42;100.00;101748.94;4992904;28;20445;-80
2023/09/15 00:20:50;;;;;;;6.53;5.70;;;;;;;12.31;100.00;101749.44;5000047;28;20480;-81
2023/09/15 00:23:20;;;;;;;8.07;5.30;;;;;;;12.11;100.00;101748.38;5010740;28;20490;-82
2023/09/15 00:25:54;;;;;;;5.97;5.40;;;;;;;12.13;100.00;101751.75;5022272;28;20916;-81
2023/09/15 00:28:23;;;;;;;8.40;5.90;;;;;;;12.13;100.00;101754.47;5000886;28;20459;-82
2023/09/15 00:30:53;;;;;;;6.30;5.37;;;;;;;12.04;100.00;101747.50;4998124;28;20427;-80
2023/09/15 00:33:23;;;;;;;10.23;6.07;;;;;;;11.99;100.00;101758.06;5002303;28;20481;-81
2023/09/15 00:35:54;;;;;;;6.17;5.50;;;;;;;12.02;100.00;101760.41;5001668;28;20831;-81
2023/09/15 00:38:23;;;;;;;10.00;5.57;;;;;;;12.15;100.00;101764.09;5002114;28;20466;-80
2023/09/15 00:40:53;;;;;;;8.70;5.67;;;;;;;12.23;100.00;101768.59;5014764;28;20453;-81
2023/09/15 00:43:22;;;;;;;6.90;6.07;;;;;;;12.23;100.00;101760.44;5014526;28;20445;-80
2023/09/15 00:45:52;;;;;;;6.13;4.17;;;;;;;12.26;100.00;101762.75;5009843;28;20459;-80
2023/09/15 00:48:22;;;;;;;10.23;6.13;;;;;;;12.27;100.00;101769.03;5027380;28;20515;-82
2023/09/15 00:50:53;;;;;;;7.20;5.33;;;;;;;12.35;100.00;101760.75;5017355;28;20423;-80
2023/09/15 00:53:23;;;;;;;6.77;4.80;;;;;;;12.24;100.00;101756.69;5034318;28;20473;-80
2023/09/15 00:55:54;;;;;;;10.47;5.57;;;;;;;12.10;100.00;101754.88;5004572;28;20461;-80
2023/09/15 00:58:24;;;;;;;8.07;5.83;;;;;;;12.09;100.00;101751.31;5012031;28;20451;-80
2023/09/15 01:00:57;;;;;;;8.30;6.23;;;;;;;12.09;100.00;101750.47;5010867;28;20458;-82
2023/09/15 01:03:32;;;;;;;8.30;6.10;;;;;;;12.02;100.00;101754.97;5019927;28;20430;-81
2023/09/15 01:06:06;;;;;;;6.07;5.47;;;;;;;12.08;100.00;101759.63;5008426;28;20438;-81
2023/09/15 01:08:35;;;;;;;6.00;5.40;;;;;;;12.00;100.00;101754.34;5020209;28;20477;-81
2023/09/15 01:11:12;;;;;;;6.30;5.43;;;;;;;11.87;100.00;101749.56;5004200;28;20444;-81
2023/09/15 01:13:43;;;;;;;8.93;6.37;;;;;;;11.87;100.00;101751.44;5005052;28;20465;-81
2023/09/15 01:16:21;;;;;;;14.43;5.13;;;;;;;12.01;100.00;101753.28;5001955;28;20446;-82
2023/09/15 01:18:59;;;;;;;6.63;5.40;;;;;;;11.79;100.00;101743.44;5003953;28;20484;-81
2023/09/15 01:22:02;;;;;;;7.27;5.50;;;;;;;11.78;100.00;101750.72;5017992;28;20852;-81
2023/09/15 01:25:13;;;;;;;8.27;5.63;;;;;;;11.77;100.00;101747.16;5002142;28;21048;-81
2023/09/15 01:28:07;;;;;;;6.97;6.23;;;;;;;11.92;100.00;101749.84;4934457;29;20477;-82
2023/09/15 01:30:39;;;;;;;7.43;5.67;;;;;;;11.79;100.00;101746.13;4993649;28;20455;-81
2023/09/15 01:33:11;;;;;;;12.13;6.07;;;;;;;11.84;100.00;101744.53;5000831;28;20488;-81
2023/09/15 01:35:41;;;;;;;7.33;6.47;;;;;;;11.90;100.00;101741.06;5015491;28;20449;-81
2023/09/15 01:38:11;;;;;;;9.30;6.70;;;;;;;11.82;100.00;101735.75;5013175;28;20489;-82
2023/09/15 01:40:40;;;;;;;11.13;6.73;;;;;;;11.81;100.00;101744.09;5016547;28;20473;-82
2023/09/15 01:43:11;;;;;;;6.90;6.20;;;;;;;11.71;100.00;101742.44;4988706;28;20450;-81
2023/09/15 01:45:42;;;;;;;12.10;6.10;;;;;;;11.73;100.00;101748.56;5006138;28;20452;-81
2023/09/15 01:48:13;;;;;;;9.83;5.90;;;;;;;11.82;100.00;101743.88;4997535;28;21031;-81
2023/09/15 01:50:43;;;;;;;7.50;5.80;;;;;;;11.93;100.00;101743.41;5011210;28;20450;-81
2023/09/15 01:53:12;;;;;;;7.20;5.27;;;;;;;11.88;100.00;101737.69;4994292;28;20549;-81
2023/09/15 01:55:44;;;;;;;8.13;5.23;;;;;;;11.96;100.00;101747.59;4999686;28;20434;-81
2023/09/15 01:58:14;;;;;;;10.10;6.00;;;;;;;11.99;100.00;101739.09;4996561;28;20464;-81
2023/09/15 02:00:46;;;;;;;5.87;4.73;;;;;;;12.02;100.00;101739.53;5004626;28;20509;-81
2023/09/15 02:03:16;;;;;;;5.93;5.33;;;;;;;12.03;100.00;101740.38;5014849;28;20455;-81
2023/09/15 02:05:46;;;;;;;8.80;5.73;;;;;;;12.09;100.00;101739.63;5002945;28;20959;-81
2023/09/15 02:08:15;;;;;;;5.53;4.87;;;;;;;12.03;100.00;101745.81;5019467;28;20450;-81
2023/09/15 02:10:45;;;;;;;6.23;5.10;;;;;;;12.00;100.00;101741.63;5023492;28;20477;-81
2023/09/15 02:13:14;;;;;;;6.07;5.07;;;;;;;12.02;100.00;101744.97;5007645;28;20426;-81
2023/09/15 02:15:48;;;;;;;9.80;5.93;;;;;;;12.06;100.00;101746.25;5004558;28;20485;-81
2023/09/15 02:18:18;;;;;;;6.37;4.87;;;;;;;12.13;100.00;101739.03;4993375;28;21004;-81
2023/09/15 02:20:55;;;;;;;9.33;5.50;;;;;;;12.06;100.00;101740.81;5005482;28;20483;-81
2023/09/15 02:23:25;;;;;;;12.63;5.77;;;;;;;12.06;100.00;101739.97;5005706;28;20445;-81
2023/09/15 02:25:54;;;;;;;5.50;4.97;;;;;;;12.05;100.00;101746.47;4988824;28;20438;-81
2023/09/15 02:28:24;;;;;;;5.23;4.73;;;;;;;12.01;100.00;101745.97;5001148;28;20457;-81
2023/09/15 02:30:56;;;;;;;7.87;5.60;;;;;;;11.96;100.00;101747.59;5004221;28;20471;-81
2023/09/15 02:33:26;;;;;;;6.57;5.33;;;;;;;12.00;100.00;101744.31;4998206;28;20450;-81
2023/09/15 02:35:55;;;;;;;7.77;6.40;;;;;;;12.02;100.00;101750.38;4994778;28;20451;-81
2023/09/15 02:38:26;;;;;;;7.67;5.60;;;;;;;11.96;100.00;101750.28;4993328;28;20466;-81
2023/09/15 02:40:58;;;;;;;8.07;5.80;;;;;;;11.98;100.00;101749.09;5007013;28;20459;-81
2023/09/15 02:43:28;;;;;;;6.40;5.53;;;;;;;11.95;100.00;101748.63;4998118;28;20528;-81
2023/09/15 02:46:04;;;;;;;6.03;5.10;;;;;;;12.01;100.00;101753.28;4996981;28;20837;-81
2023/09/15 02:48:35;;;;;;;10.77;6.00;;;;;;;11.99;100.00;101745.34;5003145;28;20465;-81
2023/09/15 02:51:05;;;;;;;7.20;5.77;;;;;;;12.00;100.00;101752.47;4991690;28;20440;-81
2023/09/15 02:53:35;;;;;;;9.00;6.30;;;;;;;11.91;100.00;101752.78;4998365;28;20542;-81
2023/09/15 02:56:05;;;;;;;7.37;4.87;;;;;;;11.93;100.00;101750.69;5017034;28;20456;-81
2023/09/15 02:58:38;;;;;;;6.37;5.70;;;;;;;11.88;100.00;101742.28;5025118;28;20453;-81
2023/09/15 03:01:16;;;;;;;9.07;5.83;;;;;;;11.87;100.00;101736.00;5033412;28;20449;-81
2023/09/15 03:03:49;;;;;;;5.83;5.30;;;;;;;11.84;100.00;101739.13;5011505;28;20469;-81
2023/09/15 03:06:20;;;;;;;9.00;7.00;;;;;;;11.75;100.00;101734.84;5007233;28;20440;-81
2023/09/15 03:08:50;;;;;;;7.10;5.87;;;;;;;11.73;100.00;101732.31;5023530;28;20434;-80
2023/09/15 03:11:21;;;;;;;11.60;5.10;;;;;;;11.72;100.00;101727.91;5025083;28;20429;-80
2023/09/15 03:13:57;;;;;;;12.10;7.77;;;;;;;11.77;100.00;101725.47;5029389;28;20441;-80
2023/09/15 03:16:29;;;;;;;7.93;5.40;;;;;;;11.72;100.00;101727.03;5003627;28;20461;-81
2023/09/15 03:18:59;;;;;;;9.43;5.73;;;;;;;11.62;100.00;101718.34;5002819;28;20457;-81
2023/09/15 03:21:30;;;;;;;7.63;5.20;;;;;;;11.62;100.00;101719.19;5022734;28;20465;-81
2023/09/15 03:23:59;;;;;;;8.63;6.97;;;;;;;11.51;100.00;101718.84;4998745;28;20428;-81
2023/09/15 03:26:30;;;;;;;6.90;6.17;;;;;;;11.39;100.00;101723.88;5001004;28;20442;-81
2023/09/15 03:28:59;;;;;;;7.30;6.00;;;;;;;11.42;100.00;101728.94;4995240;28;20472;-80
2023/09/15 03:31:30;;;;;;;9.73;6.20;;;;;;;11.47;100.00;101726.53;5005187;28;20453;-80
2023/09/15 03:34:00;;;;;;;7.70;6.33;;;;;;;11.41;100.00;101729.97;4998885;28;20421;-81
2023/09/15 03:36:32;;;;;;;7.97;6.77;;;;;;;11.45;100.00;101727.72;4995052;28;20904;-81
2023/09/15 03:39:03;;;;;;;9.43;6.67;;;;;;;11.59;100.00;101721.44;5025426;28;20475;-80
2023/09/15 03:41:33;;;;;;;8.40;6.37;;;;;;;11.73;100.00;101729.59;5002255;28;20450;-81
2023/09/15 03:44:03;;;;;;;8.50;6.17;;;;;;;11.67;100.00;101724.88;5007490;28;20446;-81
2023/09/15 03:46:34;;;;;;;8.60;7.00;;;;;;;11.64;100.00;101722.56;5006006;28;20454;-81
2023/09/15 03:49:04;;;;;;;11.40;6.27;;;;;;;11.59;100.00;101727.72;5018357;28;21177;-80
2023/09/15 03:51:34;;;;;;;13.53;7.80;;;;;;;11.43;100.00;101727.91;5009234;28;20468;-80
2023/09/15 03:54:03;;;;;;;14.63;6.73;;;;;;;11.44;100.00;101728.75;4997061;28;20417;-80
2023/09/15 03:56:34;;;;;;;8.33;7.40;;;;;;;11.40;100.00;101732.84;5012062;28;20492;-81
2023/09/15 03:59:04;;;;;;;11.97;7.63;;;;;;;11.41;100.00;101729.13;4999567;28;20417;-81
2023/09/15 04:01:35;;;;;;;9.20;8.30;;;;;;;11.52;100.00;101721.34;5001946;28;20461;-81
2023/09/15 04:04:05;;;;;;;11.90;8.00;;;;;;;11.49;100.00;101729.88;4998236;28;20480;-80
2023/09/15 04:06:35;;;;;;;8.60;7.33;;;;;;;11.49;100.00;101729.88;4997135;28;20469;-80
2023/09/15 04:09:09;;;;;;;9.30;7.47;;;;;;;11.47;100.00;101729.22;4997344;28;20470;-80
2023/09/15 04:11:39;;;;;;;11.70;7.87;;;;;;;11.46;100.00;101732.97;5001589;28;20442;-81
2023/09/15 04:14:09;;;;;;;8.07;7.10;;;;;;;11.42;100.00;101734.38;5005267;28;20455;-81
2023/09/15 04:16:40;;;;;;;9.80;7.60;;;;;;;11.38;100.00;101733.03;5006585;28;20486;-81
2023/09/15 04:19:09;;;;;;;10.77;8.03;;;;;;;11.37;100.00;101741.38;5009469;28;20450;-81
2023/09/15 04:21:39;;;;;;;9.80;6.40;;;;;;;11.36;100.00;101740.53;4980651;28;20446;-81
2023/09/15 04:24:09;;;;;;;8.80;7.90;;;;;;;11.40;100.00;101739.13;4990038;28;20452;-81
2023/09/15 04:26:40;;;;;;;13.37;7.50;;;;;;;11.41;100.00;101738.09;5011594;28;20541;-81
2023/09/15 04:29:10;;;;;;;9.80;7.63;;;;;;;11.30;100.00;101738.56;5003492;28;20451;-81
2023/09/15 04:31:42;;;;;;;14.60;8.77;;;;;;;11.32;100.00;101736.53;4999272;28;20525;-81
2023/09/15 04:34:12;;;;;;;8.20;6.77;;;;;;;11.41;100.00;101739.97;4992756;28;20466;-81
2023/09/15 04:36:42;;;;;;;12.57;9.27;;;;;;;11.37;100.00;101735.97;4994106;28;20497;-81
2023/09/15 04:39:13;;;;;;;11.50;8.90;;;;;;;11.38;100.00;101740.31;5018815;28;20448;-81
2023/09/15 04:41:46;;;;;;;9.67;7.83;;;;;;;11.42;100.00;101741.66;5003191;28;20471;-80
2023/09/15 04:44:15;;;;;;;14.40;9.57;;;;;;;11.34;100.00;101748.00;5006717;28;20508;-80
2023/09/15 04:46:46;;;;;;;24.00;9.57;;;;;;;11.41;100.00;101748.94;5012919;28;20461;-81
2023/09/15 04:49:17;;;;;;;14.47;8.23;;;;;;;11.42;100.00;101741.66;5031783;28;20440;-82
2023/09/15 04:51:47;;;;;;;8.50;7.50;;;;;;;11.38;100.00;101749.31;5041346;28;20517;-80
2023/09/15 04:54:18;;;;;;;12.40;7.60;;;;;;;11.33;100.00;101743.59;5021207;28;20438;-80
2023/09/15 04:56:47;;;;;;;15.07;7.70;;;;;;;11.32;100.00;101755.50;5000426;28;20488;-81
2023/09/15 04:59:21;;;;;;;11.30;7.30;;;;;;;11.29;100.00;101747.72;5019165;28;20429;-81
2023/09/15 05:01:54;;;;;;;12.27;8.10;;;;;;;11.32;100.00;101750.06;5006203;28;20442;-81
2023/09/15 05:04:25;;;;;;;13.70;8.60;;;;;;;11.33;100.00;101749.00;5037199;28;20484;-80
2023/09/15 05:06:54;;;;;;;17.13;8.10;;;;;;;11.42;100.00;101753.34;5005679;28;20432;-81
2023/09/15 05:09:24;;;;;;;9.93;8.73;;;;;;;11.56;100.00;101749.78;5005625;28;20430;-80
2023/09/15 05:11:55;;;;;;;18.70;9.63;;;;;;;11.55;100.00;101747.25;5008870;28;20460;-80
2023/09/15 05:14:25;;;;;;;10.40;7.70;;;;;;;11.71;100.00;101752.47;5007945;28;20434;-80
2023/09/15 05:16:56;;;;;;;13.67;8.53;;;;;;;11.79;100.00;101743.44;5017963;28;20544;-80
2023/09/15 05:19:26;;;;;;;16.47;8.80;;;;;;;11.81;100.00;101752.22;5038093;28;20424;-81
2023/09/15 05:21:56;;;;;;;12.53;7.80;;;;;;;11.85;100.00;101748.09;5019848;28;20498;-81
2023/09/15 05:24:28;;;;;;;11.30;7.83;;;;;;;11.93;100.00;101753.41;5014259;28;20512;-81
2023/09/15 05:26:57;;;;;;;10.87;9.40;;;;;;;11.94;100.00;101752.38;5043509;28;20464;-80
2023/09/15 05:29:27;;;;;;;9.33;8.27;;;;;;;12.01;100.00;101753.28;5028568;28;20439;-81
2023/09/15 05:31:58;;;;;;;10.20;9.00;;;;;;;12.13;100.00;101752.63;5035101;28;20419;-81
2023/09/15 05:34:28;;;;;;;8.90;7.57;;;;;;;12.31;100.00;101754.88;5012556;28;20457;-81
2023/09/15 05:36:58;;;;;;;11.43;8.37;;;;;;;12.47;100.00;101765.50;5012431;28;20474;-81
2023/09/15 05:39:30;;;;;;;10.80;7.83;;;;;;;12.57;100.00;101763.31;5012758;28;20444;-81
2023/09/15 05:42:01;;;;;;;11.93;8.47;;;;;;;12.65;100.00;101756.88;5036786;28;20438;-81
2023/09/15 05:44:30;;;;;;;10.00;8.17;;;;;;;12.75;100.00;101762.00;5019276;28;20513;-80
2023/09/15 05:47:02;;;;;;;11.43;8.33;;;;;;;12.90;100.00;101765.47;5020317;28;20488;-81
2023/09/15 05:49:32;;;;;;;13.63;8.70;;;;;;;13.03;100.00;101765.56;5010923;28;20473;-81
2023/09/15 05:52:02;;;;;;;9.30;7.20;;;;;;;13.14;100.00;101767.78;5005697;28;20496;-80
2023/09/15 05:54:33;;;;;;;11.80;9.20;;;;;;;13.25;100.00;101764.53;5026366;28;20446;-80
2023/09/15 05:57:02;;;;;;;11.53;8.87;;;;;;;13.33;100.00;101769.81;5006218;28;20498;-80
2023/09/15 05:59:33;;;;;;;14.77;8.97;;;;;;;13.45;100.00;101770.09;5007480;28;20505;-81
2023/09/15 06:02:06;;;;;;;11.87;8.10;;;;;;;13.64;100.00;101773.97;4990710;28;20407;-81
2023/09/15 06:04:36;;;;;;;9.33;8.33;;;;;;;13.76;100.00;101766.91;5000248;28;20529;-80
2023/09/15 06:07:06;;;;;;;10.37;7.87;;;;;;;13.91;100.00;101764.88;5004664;28;20449;-82
2023/09/15 06:09:35;;;;;;;11.30;9.07;;;;;;;13.99;100.00;101772.84;4990466;28;20478;-81
2023/09/15 06:12:05;;;;;;;15.93;9.13;;;;;;;14.13;100.00;101777.34;4987969;28;20440;-81
2023/09/15 06:14:37;;;;;;;11.30;8.17;;;;;;;14.25;100.00;101767.50;4996795;28;20440;-80
2023/09/15 06:17:08;;;;;;;13.20;8.93;;;;;;;14.29;100.00;101774.22;5000603;28;20530;-80
2023/09/15 06:19:38;;;;;;;7.03;6.40;;;;;;;14.43;100.00;101774.28;5017432;28;20432;-81
2023/09/15 06:22:07;;;;;;;11.00;7.43;;;;;;;14.63;100.00;101775.16;5006024;28;20455;-82
2023/09/15 06:24:36;;;;;;;8.07;7.27;;;;;;;14.80;100.00;101768.28;4995649;28;20402;-82
2023/09/15 06:27:06;;;;;;;11.33;8.10;;;;;;;14.91;99.58;101767.63;5003141;28;20492;-82
2023/09/15 06:29:36;;;;;;;13.43;7.63;;;;;;;15.15;97.31;101768.91;4995109;28;20546;-80
2023/09/15 06:32:08;;;;;;;10.37;8.00;;;;;;;15.14;97.57;101768.06;5002649;28;20442;-80
2023/09/15 06:34:39;;;;;;;7.90;6.90;;;;;;;15.34;96.44;101768.03;5011761;28;20417;-80
2023/09/15 06:37:10;;;;;;;8.70;6.67;;;;;;;15.47;95.85;101770.75;4994137;28;20448;-80
2023/09/15 06:39:39;;;;;;;9.20;6.90;;;;;;;15.52;94.88;101765.50;5003744;28;20450;-82
2023/09/15 06:42:10;;;;;;;10.03;8.23;;;;;;;15.57;95.09;101773.06;5001229;28;20503;-82
2023/09/15 06:44:42;;;;;;;10.50;6.37;;;;;;;15.71;94.68;101777.41;5008809;28;20434;-82
2023/09/15 06:47:13;;;;;;;12.10;8.37;;;;;;;15.74;94.14;101779.72;5002322;28;20443;-81
2023/09/15 06:49:43;;;;;;;8.67;6.87;;;;;;;15.87;94.00;101773.38;4997406;28;20425;-81
2023/09/15 06:52:13;;;;;;;9.20;6.53;;;;;;;16.00;92.38;101779.63;5016745;28;20533;-81
2023/09/15 06:54:43;;;;;;;8.67;7.50;;;;;;;16.26;90.41;101783.28;4994909;28;20418;-81
2023/09/15 06:57:12;;;;;;;10.40;5.90;;;;;;;16.23;89.78;101780.97;5010113;28;20448;-82
2023/09/15 06:59:42;;;;;;;10.83;6.90;;;;;;;16.18;90.17;101786.25;5007698;28;20453;-82
2023/09/15 07:02:13;;;;;;;10.77;8.10;;;;;;;16.22;90.31;101787.50;4988345;28;20432;-81
2023/09/15 07:04:47;;;;;;;12.80;9.53;;;;;;;16.37;89.88;101779.84;5014826;28;20442;-82
2023/09/15 07:07:17;;;;;;;9.93;7.50;;;;;;;16.47;88.79;101782.94;4998659;28;20463;-82
2023/09/15 07:09:46;;;;;;;8.17;5.87;;;;;;;16.58;88.90;101771.34;5001274;28;20479;-81
2023/09/15 07:12:17;;;;;;;9.50;8.50;;;;;;;16.74;87.42;101773.56;5004299;28;20409;-84
2023/09/15 07:14:49;;;;;;;6.73;6.07;;;;;;;16.91;86.53;101771.94;5002541;28;20439;-81
2023/09/15 07:17:20;;;;;;;9.43;6.67;;;;;;;17.01;86.24;101773.34;4995412;28;20467;-82
2023/09/15 07:19:49;;;;;;;7.13;6.13;;;;;;;17.18;85.10;101774.47;5002944;28;20416;-81
2023/09/15 07:22:19;;;;;;;8.40;6.60;;;;;;;17.08;84.16;101776.88;4999419;28;20482;-81
2023/09/15 07:24:48;;;;;;;10.13;7.67;;;;;;;17.13;84.37;101774.28;5003376;28;20426;-82
2023/09/15 07:27:18;;;;;;;6.53;5.20;;;;;;;17.33;83.67;101780.44;5020485;28;20476;-81
2023/09/15 07:29:48;;;;;;;8.33;7.53;;;;;;;17.36;83.04;101785.44;5009467;28;20438;-82
2023/09/15 07:32:19;;;;;;;6.20;5.60;;;;;;;17.37;81.64;101784.38;4999700;28;20453;-82
2023/09/15 07:34:48;;;;;;;5.87;4.90;;;;;;;17.43;81.73;101780.72;4997362;28;20424;-82
2023/09/15 07:37:18;;;;;;;7.37;5.07;;;;;;;17.50;81.51;101776.03;5003488;28;20478;-82
2023/09/15 07:39:47;;;;;;;7.60;4.90;;;;;;;17.47;80.56;101773.75;4993292;28;20452;-82
2023/09/15 07:42:17;;;;;;;9.50;6.10;;;;;;;17.56;81.06;101777.03;4996263;28;20448;-81
2023/09/15 07:44:46;;;;;;;6.97;5.87;;;;;;;17.76;80.01;101780.41;4991202;28;20453;-82
2023/09/15 07:47:16;;;;;;;9.27;5.60;;;;;;;17.89;78.60;101779.41;4996796;28;20557;-82
2023/09/15 07:49:47;;;;;;;6.23;5.60;;;;;;;17.89;78.52;101785.72;5011354;28;20550;-82
2023/09/15 07:52:18;;;;;;;10.23;4.77;;;;;;;17.88;78.27;101783.22;5014276;28;20881;-82
2023/09/15 07:54:47;;;;;;;7.60;4.97;;;;;;;17.99;77.46;101785.19;5009341;28;20428;-82
2023/09/15 07:57:17;;;;;;;6.97;5.40;;;;;;;18.02;76.44;101779.25;5003793;28;20482;-82
2023/09/15 07:59:46;;;;;;;8.33;5.80;;;;;;;18.27;76.20;101777.22;4996676;28;20434;-80
2023/09/15 08:02:20;;;;;;;9.70;5.37;;;;;;;18.45;74.74;101779.91;4997514;28;20412;-80
2023/09/15 08:04:52;;;;;;;5.87;5.27;;;;;;;18.43;74.32;101782.06;5012801;28;20930;-82
2023/09/15 08:07:21;;;;;;;6.20;5.23;;;;;;;18.47;73.82;101783.28;5003491;28;20844;-81
2023/09/15 08:09:52;;;;;;;5.90;4.67;;;;;;;18.47;73.71;101782.44;5003324;28;20438;-81
2023/09/15 08:12:22;;;;;;;7.87;5.70;;;;;;;18.78;73.34;101786.84;4989237;28;20436;-81
2023/09/15 08:14:51;;;;;;;5.40;4.40;;;;;;;18.87;72.88;101793.66;5021228;28;20496;-81
2023/09/15 08:17:20;;;;;;;7.93;5.20;;;;;;;18.75;71.79;101787.31;5006202;28;20462;-82
2023/09/15 08:20:04;;;;;;;6.27;5.17;;;;;;;18.75;72.30;101779.06;5009000;28;20444;-81
2023/09/15 08:22:37;;;;;;;5.60;4.40;;;;;;;18.78;72.19;101779.47;5000575;28;20500;-81
2023/09/15 08:25:08;;;;;;;5.17;4.50;;;;;;;19.00;70.86;101779.72;5009494;28;20434;-81
2023/09/15 08:27:37;;;;;;;8.00;5.90;;;;;;;19.08;69.75;101773.88;4996527;28;20425;-81
2023/09/15 08:30:08;;;;;;;5.60;4.40;;;;;;;19.11;69.84;101778.91;4995634;28;20424;-81
2023/09/15 08:32:38;;;;;;;7.17;5.47;;;;;;;19.08;69.78;101771.97;4996339;28;20412;-80
2023/09/15 08:35:09;;;;;;;5.00;4.50;;;;;;;19.16;70.26;101769.97;4999699;28;20476;-80
2023/09/15 08:37:39;;;;;;;4.93;4.50;;;;;;;19.14;69.64;101775.69;5005247;28;20449;-81
2023/09/15 08:40:10;;;;;;;9.23;5.60;;;;;;;19.02;69.61;101770.22;4993580;28;20485;-81
2023/09/15 08:42:40;;;;;;;6.73;5.23;;;;;;;19.25;70.01;101761.16;4999113;28;20490;-82
2023/09/15 08:45:10;;;;;;;5.70;4.50;;;;;;;19.38;68.91;101763.63;4998277;28;20605;-81
2023/09/15 08:47:43;;;;;;;9.50;5.53;;;;;;;19.61;67.88;101770.22;5001302;28;20444;-82
2023/09/15 08:50:17;;;;;;;6.07;4.60;;;;;;;19.70;66.65;101766.03;4996458;28;20428;-82
2023/09/15 08:52:46;;;;;;;6.03;4.63;;;;;;;19.71;67.01;101762.19;4994935;28;20442;-83
2023/09/15 08:55:16;;;;;;;6.67;5.30;;;;;;;19.80;65.06;101763.50;5003849;28;20447;-82
2023/09/15 08:57:47;;;;;;;6.60;5.20;;;;;;;19.73;66.12;101758.16;4988476;28;20481;-81
2023/09/15 09:00:17;;;;;;;6.20;4.70;;;;;;;20.12;65.72;101764.72;4996404;28;20538;-81
2023/09/15 09:02:52;;;;;;;8.87;4.47;;;;;;;20.11;63.19;101763.06;4997013;28;20878;-82
2023/09/15 09:05:24;;;;;;;5.20;3.67;;;;;;;20.33;61.17;101761.31;4999648;28;20441;-80
2023/09/15 09:07:57;;;;;;;6.17;4.53;;;;;;;20.56;61.50;101765.03;4990732;28;20465;-81
2023/09/15 09:10:32;;;;;;;6.67;4.00;;;;;;;20.52;61.40;101770.22;5000401;28;20935;-82
2023/09/15 09:13:05;;;;;;;8.23;4.77;;;;;;;20.42;61.72;101763.69;4994561;28;20454;-82
2023/09/15 09:15:34;;;;;;;8.77;4.40;;;;;;;20.42;61.59;101764.53;5002710;28;20445;-81
2023/09/15 09:18:15;;;;;;;4.97;3.67;;;;;;;20.57;59.88;101766.72;5015901;28;20595;-82
2023/09/15 09:20:49;;;;;;;5.53;3.53;;;;;;;20.46;60.93;101764.84;5011095;28;20446;-82
2023/09/15 09:23:19;;;;;;;5.30;3.90;;;;;;;20.36;60.85;101766.34;5021253;28;20477;-83
2023/09/15 09:25:49;;;;;;;5.87;4.30;;;;;;;20.28;60.62;101761.19;5017664;28;20441;-81
2023/09/15 09:28:23;;;;;;;4.57;3.53;;;;;;;20.40;60.95;101761.16;5008580;28;20468;-84
2023/09/15 09:30:55;;;;;;;5.57;3.93;;;;;;;20.52;60.74;101756.47;5000559;28;20416;-83
2023/09/15 09:33:28;;;;;;;8.43;3.97;;;;;;;20.62;60.04;101753.88;4997318;28;20512;-82
2023/09/15 09:36:09;;;;;;;7.93;4.70;;;;;;;20.82;58.44;101764.38;5002041;28;20434;-81
2023/09/15 09:38:50;;;;;;;7.20;3.73;;;;;;;20.88;58.70;101757.91;5024403;28;20560;-82
2023/09/15 09:41:24;;;;;;;6.07;3.80;;;;;;;20.86;57.56;101748.25;5016631;28;20454;-82
2023/09/15 09:44:07;;;;;;;6.23;3.23;;;;;;;20.89;58.13;101748.56;5001958;28;20417;-83
2023/09/15 09:46:45;;;;;;;4.43;3.53;;;;;;;20.96;57.24;101754.72;5000279;28;20462;-83
2023/09/15 09:49:17;;;;;;;6.53;3.67;;;;;;;21.12;56.51;101747.53;4995875;28;20520;-82
2023/09/15 09:52:00;;;;;;;4.90;4.13;;;;;;;21.20;55.83;101745.22;4997406;28;20426;-83
2023/09/15 09:54:41;;;;;;;8.50;3.63;;;;;;;21.10;56.02;101752.50;5001650;28;20420;-82
2023/09/15 09:57:10;;;;;;;6.60;3.80;;;;;;;21.21;55.95;101749.66;4996571;28;20474;-81
2023/09/15 09:59:40;;;;;;;4.43;3.80;;;;;;;21.34;54.52;101748.47;5016160;28;20469;-82
2023/09/15 10:02:09;;;;;;;3.80;2.70;;;;;;;21.42;53.79;101738.94;5000794;28;20408;-84
2023/09/15 10:04:39;;;;;;;9.40;4.40;;;;;;;21.68;54.59;101735.47;5003725;28;20438;-83
2023/09/15 10:07:12;;;;;;;10.50;3.27;;;;;;;21.91;51.97;101731.59;5003528;28;20485;-82
2023/09/15 10:09:41;;;;;;;5.10;3.30;;;;;;;21.94;51.03;101736.63;5019286;28;20416;-82
2023/09/15 10:12:12;;;;;;;6.70;3.40;;;;;;;21.96;50.64;101732.53;4999715;28;20424;-82
2023/09/15 10:14:42;;;;;;;6.90;3.20;;;;;;;21.72;51.41;101722.84;4997568;28;20437;-83
2023/09/15 10:17:12;;;;;;;5.53;3.47;;;;;;;21.62;51.62;101723.53;5003468;28;20530;-82
2023/09/15 10:19:43;;;;;;;3.00;2.70;;;;;;;21.55;51.41;101725.63;4994566;28;20460;-83
2023/09/15 10:22:14;;;;;;;5.10;3.77;;;;;;;21.66;51.51;101721.94;4995505;28;20437;-82
2023/09/15 10:24:48;;;;;;;7.07;4.10;;;;;;;21.87;51.12;101722.19;4991577;28;20480;-82
2023/09/15 10:27:18;;;;;;;5.23;3.40;;;;;;;22.03;49.65;101727.66;4993778;28;20434;-82
2023/09/15 10:29:48;;;;;;;3.40;3.10;;;;;;;22.00;49.37;101717.16;5005204;28;20402;-81
2023/09/15 10:32:18;;;;;;;5.60;3.93;;;;;;;22.02;48.03;101728.75;5012239;28;20433;-80
2023/09/15 10:34:48;;;;;;;7.00;4.30;;;;;;;22.24;48.54;101712.16;5009089;28;20400;-83
2023/09/15 10:37:20;;;;;;;3.90;2.90;;;;;;;22.31;47.90;101707.28;4994142;28;20456;-83
2023/09/15 10:39:59;;;;;;;4.77;2.70;;;;;;;22.52;47.50;101708.28;4997205;28;21021;-82
2023/09/15 10:42:28;;;;;;;8.30;3.90;;;;;;;22.49;47.08;101704.16;5006726;28;20438;-81
2023/09/15 10:44:58;;;;;;;6.63;3.50;;;;;;;22.47;47.75;101699.97;5023077;28;20447;-83
2023/09/15 10:47:27;;;;;;;4.63;4.03;;;;;;;22.64;47.98;101700.69;5000545;28;20531;-81
2023/09/15 10:49:57;;;;;;;4.70;3.90;;;;;;;22.35;47.87;101697.41;4999342;28;20821;-81
2023/09/15 10:52:35;;;;;;;4.90;3.50;;;;;;;22.25;48.71;101696.47;4994277;28;20917;-82
2023/09/15 10:55:05;;;;;;;10.90;4.23;;;;;;;22.21;48.48;101696.16;4999830;28;21227;-82
2023/09/15 10:57:36;;;;;;;4.47;2.73;;;;;;;22.40;48.62;101682.81;5002724;28;20525;-81
2023/09/15 11:00:08;;;;;;;4.87;3.73;;;;;;;22.51;47.51;101684.59;4997079;28;20442;-80
2023/09/15 11:02:39;;;;;;;4.90;3.70;;;;;;;22.74;47.19;101678.75;5004179;28;20551;-83
2023/09/15 11:05:09;;;;;;;3.93;3.40;;;;;;;22.86;47.24;101676.59;5017805;28;20481;-82
2023/09/15 11:07:41;;;;;;;4.43;3.57;;;;;;;22.78;47.52;101674.34;5000940;28;21049;-84
2023/09/15 11:10:10;;;;;;;4.83;4.23;;;;;;;22.81;46.57;101657.25;5002856;28;20428;-81
2023/09/15 11:12:39;;;;;;;5.50;4.13;;;;;;;22.84;47.82;101658.66;5010920;28;20493;-81
2023/09/15 11:15:10;;;;;;;4.03;3.60;;;;;;;22.98;48.11;101661.78;5011937;28;20429;-81
2023/09/15 11:17:40;;;;;;;7.40;4.73;;;;;;;23.06;47.95;101659.34;5007294;28;20473;-82
2023/09/15 11:20:10;;;;;;;4.03;3.50;;;;;;;23.06;47.54;101664.03;5007429;28;20497;-81
2023/09/15 11:22:41;;;;;;;4.10;2.90;;;;;;;22.72;47.87;101658.84;4998710;28;20450;-82
2023/09/15 11:25:11;;;;;;;6.27;3.80;;;;;;;22.75;47.94;101663.81;4997566;28;20459;-82
2023/09/15 11:27:48;;;;;;;4.63;4.17;;;;;;;22.81;48.26;101657.25;4992982;28;20427;-82
2023/09/15 11:30:18;;;;;;;7.10;4.43;;;;;;;22.87;48.59;101660.88;4996176;28;20434;-81
2023/09/15 11:32:49;;;;;;;4.83;3.63;;;;;;;22.83;49.06;101660.59;4998718;28;20431;-82
2023/09/15 11:35:20;;;;;;;5.23;3.90;;;;;;;22.84;48.98;101653.97;4998244;28;20493;-81
2023/09/15 11:37:52;;;;;;;5.37;3.67;;;;;;;22.89;49.36;101654.00;5005409;28;20468;-80